Impacts METAR Board
IDs:

KPHX - Phoenix/Sky Harbor, AZ, US

Updated at: 2100 UTC 15 Jun 2019
Potential Impact None Slight Moderate High
Time 15/09Z 15/10Z 15/11Z 15/12Z 15/13Z 15/14Z 15/15Z 15/16Z 15/17Z 15/18Z 15/19Z 15/20Z 15/21Z
Temp83 82 79 78 78 81 84 87 91 94 96 98 100
Dewpt38 37 36 39 43 43 41 39 38 38 37 37 35
Altim29.76 29.77 29.77 29.79 29.80 29.83 29.85 29.85 29.85 29.84 29.83 29.80 29.78
VIS10 10 10 10 10 10 10 10 10 10 10 10 10
CIG-- -- -- -- -- -- -- -- -- -- -- -- --
CoverCLRCLRCLRCLRCLRCLRCLRFEWCLRCLRCLRCLRFEW
FltCatVFRVFRVFRVFRVFRVFRVFRVFRVFRVFRVFRVFRVFR
WX--------------------------
WDir100801101101001101001001300220350
WSpd8 6 8 8 7 6 7 6 5 5 4 6
WGst-- -- -- -- -- -- -- -- -- -- -- -- --
Raw hourly METARs
KPHX 150851Z 10008KT 10SM CLR 28/03 A2976 RMK AO2 SLP056 T02830033 53007
KPHX 150951Z 08006KT 10SM CLR 28/03 A2977 RMK AO2 SLP058 T02780028
KPHX 151051Z 11008KT 10SM CLR 26/02 A2977 RMK AO2 SLP060 T02610022
KPHX 151151Z 11008KT 10SM CLR 26/04 A2979 RMK AO2 SLP066 T02560039 10333 20256 53009
KPHX 151251Z 10007KT 10SM CLR 26/06 A2980 RMK AO2 SLP072 T02560061
KPHX 151351Z 11006KT 10SM CLR 27/06 A2983 RMK AO2 SLP080 T02720061
KPHX 151451Z 10007KT 10SM CLR 29/05 A2985 RMK AO2 SLP085 T02890050 52019
KPHX 151551Z 10006KT 10SM FEW250 31/04 A2985 RMK AO2 SLP088 T03060039
KPHX 151651Z 13005KT 10SM CLR 33/03 A2985 RMK AO2 SLP086 T03280033
KPHX 151751Z VRB05KT 10SM CLR 34/03 A2984 RMK AO2 SLP084 T03440033 10356 20250 58001
KPHX 151851Z 22004KT 10SM CLR 36/03 A2983 RMK AO2 SLP080 T03560028
KPHX 151951Z 10SM CLR 37/03 A2980 RMK AO2 SLP071 T03670028
KPHX 152051Z 35006KT 10SM FEW120 38/02 A2978 RMK AO2 SLP062 T03780017 58021



Page loaded:  21:33 UTC  |   02:33 PM Pacific  |   03:33 PM Mountain  |   04:33 PM Central  |   05:33 PM Eastern

 

ADVISORIES

FORECASTS

FORECASTS

OBSERVATIONS

USER TOOLS

ABOUT US